Time;durP1;ratioP1;P1;durP2;ratioP2;P2;SDS_P1;SDS_P2;PMS_P1;PMS_P2;Temp;Humidity;BMP_temperature;BMP_pressure;BME280_temperature;BME280_humidity;BME280_pressure;Samples;Min_cycle;Max_cycle;Signal;HPM_P1;HPM_P2
2022/06/01 05:03:50;;;;;;;8.70;3.97;;;12.90;99.90;;;;;;6196903;23;20127;-78
2022/06/01 05:06:16;;;;;;;6.90;3.60;;;13.00;99.90;;;;;;6196500;23;20005;-77
2022/06/01 05:08:42;;;;;;;6.68;3.75;;;13.10;99.70;;;;;;6196808;23;19996;-77
2022/06/01 05:11:08;;;;;;;6.88;3.70;;;13.20;99.60;;;;;;6196309;23;20005;-79
2022/06/01 05:13:34;;;;;;;8.20;4.35;;;13.30;99.30;;;;;;6196103;23;20016;-78
2022/06/01 05:16:01;;;;;;;6.53;3.92;;;13.30;99.10;;;;;;6195378;23;20001;-78
2022/06/01 05:18:28;;;;;;;5.45;3.80;;;13.40;98.80;;;;;;6169582;23;20231;-78
2022/06/01 05:21:27;;;;;;;7.80;3.70;;;13.50;98.40;;;;;;6171441;23;20047;-79
2022/06/01 05:24:02;;;;;;;6.30;3.40;;;13.60;98.20;;;;;;6171265;23;20009;-77
2022/06/01 05:26:28;;;;;;;5.60;3.20;;;13.80;97.80;;;;;;6194891;23;20001;-79
2022/06/01 05:29:38;;;;;;;8.32;3.70;;;13.90;97.50;;;;;;6169141;23;20005;-78
2022/06/01 05:32:54;;;;;;;7.95;4.20;;;14.00;97.40;;;;;;6133326;23;20002;-78
2022/06/01 05:35:20;;;;;;;6.70;3.45;;;14.10;97.10;;;;;;6133212;23;20018;-79
2022/06/01 05:37:45;;;;;;;8.27;4.10;;;14.20;96.60;;;;;;6109855;23;20069;-80
2022/06/01 05:40:12;;;;;;;9.20;4.13;;;14.30;96.40;;;;;;6133835;23;20002;-79
2022/06/01 05:42:37;;;;;;;6.03;3.55;;;14.40;96.30;;;;;;6134105;23;20077;-78
2022/06/01 05:45:04;;;;;;;10.43;4.90;;;14.50;96.10;;;;;;6133784;23;20215;-78
2022/06/01 05:47:29;;;;;;;7.47;4.00;;;14.60;95.90;;;;;;6133460;23;20009;-80
2022/06/01 05:49:55;;;;;;;5.88;3.47;;;14.70;95.80;;;;;;6134203;23;20232;-79
2022/06/01 05:52:21;;;;;;;6.18;4.00;;;14.80;95.50;;;;;;6133284;23;20065;-77
2022/06/01 05:54:47;;;;;;;7.47;3.78;;;14.90;95.40;;;;;;6134034;23;20013;-78
2022/06/01 05:57:13;;;;;;;6.72;3.88;;;15.00;95.10;;;;;;6133318;23;20006;-79
2022/06/01 05:59:40;;;;;;;6.85;3.55;;;15.10;94.80;;;;;;6134037;23;20006;-78
2022/06/01 06:02:07;;;;;;;5.05;3.15;;;15.20;94.70;;;;;;6139748;23;20022;-78
2022/06/01 06:04:36;;;;;;;6.82;3.35;;;15.20;94.40;;;;;;6194895;23;20340;-79
2022/06/01 06:07:02;;;;;;;8.60;2.80;;;15.40;94.20;;;;;;6195330;23;20187;-79
2022/06/01 06:10:37;;;;;;;6.32;2.90;;;15.60;93.90;;;;;;6195097;23;19991;-79
2022/06/01 06:13:29;;;;;;;6.95;3.00;;;15.70;93.60;;;;;;6194674;23;20048;-78
2022/06/01 06:15:54;;;;;;;5.03;2.80;;;16.00;93.10;;;;;;6194710;23;20021;-77
2022/06/01 06:18:23;;;;;;;6.55;3.20;;;16.10;92.80;;;;;;6194656;23;20005;-77
2022/06/01 06:20:48;;;;;;;6.32;2.88;;;16.20;92.40;;;;;;6169193;23;20005;-77
2022/06/01 06:23:17;;;;;;;6.97;2.83;;;16.20;92.30;;;;;;6194794;23;20016;-77
2022/06/01 06:29:18;;;;;;;8.35;2.80;;;16.50;92.10;;;;;;6195034;23;20011;-78
2022/06/01 06:32:04;;;;;;;10.23;3.00;;;16.70;91.50;;;;;;6194264;23;20017;-77
2022/06/01 06:34:35;;;;;;;7.60;2.65;;;16.90;91.50;;;;;;6194222;23;20005;-78
2022/06/01 06:37:01;;;;;;;5.15;2.22;;;17.00;91.10;;;;;;6194999;23;20028;-78
2022/06/01 06:39:36;;;;;;;6.78;2.88;;;17.10;91.00;;;;;;6194601;23;20009;-79
2022/06/01 06:42:04;;;;;;;7.57;2.65;;;17.30;90.70;;;;;;6169142;23;20060;-78
2022/06/01 06:44:30;;;;;;;4.38;2.67;;;17.30;90.30;;;;;;6194355;23;20008;-78
2022/06/01 06:47:01;;;;;;;5.35;2.25;;;17.40;90.20;;;;;;6194255;23;20013;-79
2022/06/01 06:49:26;;;;;;;5.07;2.42;;;17.60;90.10;;;;;;6167967;23;20009;-78
2022/06/01 06:51:52;;;;;;;4.68;2.00;;;17.70;89.40;;;;;;6195269;23;20040;-79
2022/06/01 06:54:36;;;;;;;6.47;2.67;;;17.90;88.90;;;;;;6194297;23;20001;-78
2022/06/01 07:00:41;;;;;;;7.07;2.50;;;18.20;87.50;;;;;;6073439;23;20013;-79
2022/06/01 07:03:07;;;;;;;5.32;2.15;;;18.20;87.30;;;;;;6048591;23;20015;-76
2022/06/01 07:08:33;;;;;;;4.22;2.10;;;18.40;86.90;;;;;;6072809;23;20200;-78
2022/06/01 07:10:59;;;;;;;6.40;2.65;;;18.50;86.70;;;;;;6073584;23;20311;-77
2022/06/01 07:13:27;;;;;;;6.93;1.73;;;18.60;86.50;;;;;;6073200;23;20009;-78
2022/06/01 07:16:08;;;;;;;2.90;1.55;;;18.80;85.10;;;;;;6072901;23;20066;-77
2022/06/01 07:18:36;;;;;;;4.32;1.50;;;19.00;83.60;;;;;;6072790;23;20019;-78
2022/06/01 07:21:05;;;;;;;5.07;1.90;;;19.10;83.50;;;;;;6073299;23;20010;-78
2022/06/01 07:23:31;;;;;;;5.38;1.33;;;19.40;81.60;;;;;;6072006;23;20075;-78
2022/06/01 07:25:57;;;;;;;3.63;1.42;;;19.50;78.70;;;;;;6073559;23;20006;-78
2022/06/01 07:28:24;;;;;;;3.05;1.45;;;19.60;78.70;;;;;;6072956;23;20007;-76
2022/06/01 07:30:50;;;;;;;5.07;1.40;;;19.70;76.70;;;;;;6073308;23;20131;-78
2022/06/01 07:33:19;;;;;;;4.22;1.50;;;19.90;75.70;;;;;;6073064;23;19999;-78
2022/06/01 07:35:45;;;;;;;2.17;1.10;;;20.00;76.20;;;;;;6108743;23;20062;-79
2022/06/01 07:43:42;;;;;;;5.10;1.50;;;20.20;75.30;;;;;;6223082;23;20016;-78
2022/06/01 07:46:11;;;;;;;4.97;1.20;;;20.40;73.80;;;;;;6195833;23;20346;-78
2022/06/01 07:48:38;;;;;;;4.65;1.20;;;20.50;72.20;;;;;;6221843;23;20001;-77
2022/06/01 07:51:37;;;;;;;3.10;1.40;;;20.50;71.80;;;;;;6222970;23;20007;-77
2022/06/01 07:54:24;;;;;;;4.57;1.30;;;20.60;71.70;;;;;;6222853;23;20221;-77
2022/06/01 07:56:56;;;;;;;4.70;1.48;;;20.70;70.10;;;;;;6222845;23;20015;-77
2022/06/01 07:59:25;;;;;;;3.17;1.08;;;20.80;69.90;;;;;;6196205;23;20008;-78
2022/06/01 08:01:51;;;;;;;2.10;0.90;;;20.80;66.90;;;;;;6195719;23;20063;-78
2022/06/01 08:04:17;;;;;;;2.67;1.13;;;20.70;67.70;;;;;;6221864;23;20009;-80
2022/06/01 08:06:43;;;;;;;2.28;1.10;;;20.80;68.60;;;;;;6196351;23;20305;-79
2022/06/01 08:09:23;;;;;;;2.45;1.33;;;20.70;68.50;;;;;;6197104;23;20035;-80
2022/06/01 08:14:50;;;;;;;3.17;1.40;;;20.90;68.20;;;;;;6222839;23;20279;-78
2022/06/01 08:17:16;;;;;;;3.65;1.30;;;20.90;68.80;;;;;;6221825;23;20019;-79
2022/06/01 08:19:46;;;;;;;2.15;1.10;;;21.10;68.50;;;;;;6195572;23;20232;-79
2022/06/01 08:22:16;;;;;;;2.58;1.20;;;21.20;67.80;;;;;;6196597;23;20012;-78
2022/06/01 08:25:04;;;;;;;3.38;1.23;;;21.10;65.60;;;;;;6223420;23;20381;-79
2022/06/01 08:27:30;;;;;;;2.92;1.25;;;21.20;64.40;;;;;;6223363;23;19997;-79
2022/06/01 08:30:06;;;;;;;3.05;0.98;;;21.50;64.20;;;;;;6206095;23;20198;-78
2022/06/01 08:33:00;;;;;;;;;;;;;;;;;;;;;
2022/06/01 08:35:52;;;;;;;3.20;0.88;;;21.80;58.00;;;;;;6222843;23;20266;-79
2022/06/01 08:38:18;;;;;;;3.05;0.55;;;21.60;57.30;;;;;;6222422;23;19996;-79
2022/06/01 08:41:03;;;;;;;2.33;0.90;;;21.50;57.50;;;;;;6222841;23;20023;-80
2022/06/01 08:47:29;;;;;;;3.60;1.05;;;21.90;58.40;;;;;;6222885;23;20099;-79
2022/06/01 08:50:38;;;;;;;2.80;0.93;;;22.60;58.00;;;;;;6196217;23;20068;-79
2022/06/01 08:53:07;;;;;;;2.28;0.75;;;22.80;57.90;;;;;;6169449;23;20072;-79
2022/06/01 08:55:55;;;;;;;2.05;1.13;;;22.70;58.10;;;;;;6222347;23;20004;-79
2022/06/01 08:58:23;;;;;;;;;;;22.70;58.80;;;;;;6222576;23;20000;-78
2022/06/01 09:04:10;;;;;;;1.77;0.70;;;23.20;59.50;;;;;;6220593;23;19911;-78
2022/06/01 09:07:18;;;;;;;3.70;1.25;;;23.50;58.00;;;;;;6221480;23;20313;-78
2022/06/01 09:09:50;;;;;;;7.68;1.48;;;23.40;60.80;;;;;;6195640;23;20005;-78
2022/06/01 09:12:21;;;;;;;6.03;1.95;;;23.30;61.60;;;;;;6170909;23;20004;-78
2022/06/01 09:15:13;;;;;;;5.28;1.40;;;23.10;62.30;;;;;;6222874;23;20001;-78
2022/06/01 09:27:35;;;;;;;4.60;0.90;;;22.60;61.60;;;;;;6222519;23;20001;-78
2022/06/01 09:30:19;;;;;;;3.23;0.90;;;22.50;62.10;;;;;;6222155;23;20003;-78
2022/06/01 09:36:34;;;;;;;;;;;22.80;59.10;;;;;;6198089;23;20028;-78
2022/06/01 09:39:03;;;;;;;3.55;0.88;;;23.10;58.40;;;;;;6195935;23;19906;-79
2022/06/01 09:41:47;;;;;;;6.28;1.40;;;23.40;57.00;;;;;;6195688;23;20019;-78
2022/06/01 09:44:40;;;;;;;2.28;1.00;;;23.50;58.30;;;;;;6221613;23;20004;-79
2022/06/01 09:47:39;;;;;;;4.55;1.20;;;23.80;57.90;;;;;;6157123;23;20048;-78
2022/06/01 09:50:43;;;;;;;3.28;1.00;;;23.80;58.10;;;;;;6224221;23;20022;-80
2022/06/01 09:53:21;;;;;;;4.05;1.20;;;24.00;58.20;;;;;;6218508;23;20008;-78
2022/06/01 09:55:54;;;;;;;3.63;1.20;;;23.90;57.20;;;;;;6197745;23;20198;-78
2022/06/01 10:07:00;;;;;;;2.55;1.00;;;24.40;59.00;;;;;;6193648;23;20005;-79
2022/06/01 10:09:29;;;;;;;3.63;1.08;;;24.80;57.40;;;;;;6193761;23;20001;-78
2022/06/01 10:11:57;;;;;;;3.42;1.10;;;25.00;57.30;;;;;;6167725;23;20063;-77
2022/06/01 10:14:37;;;;;;;3.88;0.98;;;25.20;56.50;;;;;;6142859;23;20009;-79
2022/06/01 10:17:23;;;;;;;1.98;0.90;;;25.30;52.80;;;;;;6167028;23;20086;-79
2022/06/01 10:20:18;;;;;;;3.40;0.80;;;25.30;54.80;;;;;;6143083;23;20032;-79
2022/06/01 10:23:11;;;;;;;2.80;1.00;;;25.40;52.70;;;;;;6153328;23;20029;-78
2022/06/01 10:26:16;;;;;;;2.65;0.70;;;25.80;51.90;;;;;;6166917;23;20033;-79
2022/06/01 10:29:11;;;;;;;1.38;0.60;;;25.60;51.10;;;;;;6162045;23;20025;-78
2022/06/01 10:32:01;;;;;;;2.60;0.70;;;25.30;51.30;;;;;;6141511;23;20043;-78
2022/06/01 10:35:11;;;;;;;1.60;0.60;;;25.10;51.20;;;;;;6167238;23;20024;-78
2022/06/01 10:37:59;;;;;;;1.77;0.60;;;24.70;51.60;;;;;;6166606;23;20075;-79
2022/06/01 10:40:47;;;;;;;3.58;1.08;;;25.00;51.10;;;;;;6193084;23;20061;-78
2022/06/01 10:50:27;;;;;;;1.00;0.40;;;25.90;48.80;;;;;;6193697;23;19997;-78
2022/06/01 10:53:18;;;;;;;;;;;25.80;47.40;;;;;;6167951;23;20028;-79
2022/06/01 10:55:44;;;;;;;3.90;0.60;;;25.80;47.90;;;;;;6217104;23;19899;-80
2022/06/01 10:58:23;;;;;;;1.42;0.60;;;25.50;48.70;;;;;;6193486;23;20059;-77
2022/06/01 11:01:06;;;;;;;1.70;0.68;;;25.20;49.40;;;;;;6166980;23;20013;-78
2022/06/01 11:07:52;;;;;;;1.38;0.50;;;25.40;48.40;;;;;;6223309;23;20004;-78
2022/06/01 11:10:38;;;;;;;5.10;0.65;;;25.40;47.60;;;;;;6222508;23;20047;-78
2022/06/01 11:17:16;;;;;;;2.33;0.60;;;26.10;47.20;;;;;;6222820;23;20059;-79
2022/06/01 11:24:10;;;;;;;2.72;0.80;;;25.90;46.80;;;;;;6131430;23;20037;-77
2022/06/01 11:30:48;;;;;;;1.83;0.60;;;26.30;47.20;;;;;;6131160;23;20024;-77
2022/06/01 11:33:32;;;;;;;1.70;0.50;;;26.60;46.80;;;;;;6132587;23;20013;-79
2022/06/01 11:40:24;;;;;;;1.90;0.60;;;26.50;47.70;;;;;;6131808;23;20037;-77
2022/06/01 11:43:14;;;;;;;1.63;0.50;;;25.80;46.80;;;;;;6131607;23;20010;-78
2022/06/01 11:45:48;;;;;;;7.55;0.85;;;25.70;47.60;;;;;;6130285;23;20016;-78
2022/06/01 11:52:20;;;;;;;2.13;0.60;;;27.20;46.00;;;;;;6131372;23;20066;-79
2022/06/01 11:55:11;;;;;;;3.45;0.52;;;28.90;44.00;;;;;;6131223;23;20033;-77
2022/06/01 11:58:18;;;;;;;1.45;0.40;;;30.30;44.10;;;;;;6130246;23;20037;-77
2022/06/01 12:00:52;;;;;;;1.60;0.63;;;31.80;42.80;;;;;;6121477;23;20011;-77
2022/06/01 12:03:21;;;;;;;1.73;0.50;;;32.20;42.10;;;;;;6105290;23;20034;-77
2022/06/01 12:06:02;;;;;;;1.48;0.50;;;32.30;41.30;;;;;;6183334;23;20022;-77
2022/06/01 12:08:41;;;;;;;1.67;0.70;;;31.50;42.00;;;;;;6195514;23;20048;-77
2022/06/01 12:11:14;;;;;;;1.55;0.50;;;30.20;42.70;;;;;;6222447;23;20131;-77
2022/06/01 12:13:40;;;;;;;2.00;0.45;;;31.30;42.40;;;;;;6222278;23;19996;-78
2022/06/01 12:16:25;;;;;;;1.70;0.70;;;30.60;43.10;;;;;;6222527;23;20015;-78
2022/06/01 12:19:11;;;;;;;2.88;0.60;;;29.70;43.70;;;;;;6223748;23;20020;-78
2022/06/01 12:21:43;;;;;;;3.05;0.50;;;28.70;44.40;;;;;;6223289;23;20003;-78
2022/06/01 12:28:35;;;;;;;1.20;0.52;;;28.70;45.00;;;;;;6223207;23;20008;-79
2022/06/01 12:31:12;;;;;;;1.67;0.70;;;28.70;45.60;;;;;;6171362;23;20008;-78
2022/06/01 12:34:16;;;;;;;2.33;0.73;;;28.70;45.00;;;;;;6197331;23;20000;-78
2022/06/01 12:37:13;;;;;;;0.95;0.30;;;28.70;45.20;;;;;;6224418;23;19997;-78
2022/06/01 12:39:39;;;;;;;4.10;0.70;;;29.00;45.70;;;;;;6224259;23;20004;-78
2022/06/01 12:42:13;;;;;;;2.25;0.73;;;28.10;45.30;;;;;;6173079;23;20066;-77
2022/06/01 12:44:52;;;;;;;2.92;0.82;;;27.50;47.00;;;;;;6223537;23;20027;-81
2022/06/01 12:54:54;;;;;;;2.30;0.70;;;26.20;48.30;;;;;;6187215;23;20055;-80
2022/06/01 13:01:18;;;;;;;2.65;0.77;;;26.60;47.80;;;;;;6172598;23;20020;-76
2022/06/01 13:03:49;;;;;;;2.78;0.60;;;26.50;48.60;;;;;;6193862;23;20008;-80
2022/06/01 13:06:23;;;;;;;2.20;0.60;;;26.50;48.50;;;;;;6172237;23;20028;-80
2022/06/01 13:09:19;;;;;;;3.20;1.00;;;27.70;48.40;;;;;;6197204;23;20004;-80
2022/06/01 13:11:56;;;;;;;2.67;0.63;;;27.90;48.10;;;;;;6165088;23;20195;-78
2022/06/01 13:14:25;;;;;;;1.77;0.75;;;27.20;49.30;;;;;;6166838;23;20012;-79
2022/06/01 15:22:45;;;;;;;3.78;1.10;;;28.20;49.10;;;;;;6170079;22;20017;-79
2022/06/01 15:25:12;;;;;;;2.80;0.80;;;27.50;49.70;;;;;;6225073;23;20003;-78
2022/06/01 15:28:04;;;;;;;3.63;0.90;;;27.10;50.50;;;;;;6224801;23;19993;-79
2022/06/01 15:40:29;;;;;;;2.95;1.00;;;26.90;50.60;;;;;;6225764;23;20108;-80
2022/06/01 15:42:57;;;;;;;2.25;0.80;;;26.80;50.70;;;;;;6198991;23;20005;-79
2022/06/01 15:45:23;;;;;;;2.33;0.90;;;26.80;50.50;;;;;;6197110;23;20051;-80
2022/06/01 15:48:10;;;;;;;2.30;0.88;;;26.50;51.00;;;;;;6199213;23;20016;-79
2022/06/01 15:50:40;;;;;;;5.68;1.10;;;26.10;50.90;;;;;;6211487;23;20129;-80
2022/06/01 15:53:07;;;;;;;2.53;0.98;;;25.80;51.70;;;;;;6198604;23;20264;-81
2022/06/01 15:55:33;;;;;;;2.47;0.88;;;25.70;52.10;;;;;;6225055;23;19997;-80
2022/06/01 15:58:27;;;;;;;7.03;1.17;;;25.70;51.80;;;;;;6225232;23;20020;-79
2022/06/01 16:04:22;;;;;;;3.83;1.08;;;25.80;51.80;;;;;;6247864;23;20006;-80
2022/06/01 16:06:48;;;;;;;3.28;0.93;;;26.60;50.60;;;;;;6229178;23;19996;-82
2022/06/01 16:09:39;;;;;;;2.28;0.82;;;29.00;48.90;;;;;;6229254;23;20000;-81
2022/06/01 16:16:23;;;;;;;;;;;34.00;44.20;;;;;;6254463;23;20039;-79
2022/06/01 16:23:40;;;;;;;2.25;0.80;;;34.90;43.00;;;;;;6253887;22;20119;-81
2022/06/01 16:26:31;;;;;;;4.97;0.98;;;33.60;43.80;;;;;;6255111;23;20344;-81
2022/06/01 16:28:58;;;;;;;1.80;0.47;;;32.90;44.40;;;;;;6255475;23;20004;-80
2022/06/01 16:31:35;;;;;;;4.50;0.80;;;33.30;44.30;;;;;;6227378;23;20008;-82
2022/06/01 16:34:07;;;;;;;2.92;0.80;;;32.90;44.40;;;;;;6254861;23;20043;-80
2022/06/01 16:37:04;;;;;;;3.08;0.65;;;32.30;44.60;;;;;;6254116;23;20281;-79
2022/06/01 16:39:30;;;;;;;3.47;0.90;;;30.70;46.40;;;;;;6254091;23;20008;-79
2022/06/01 16:45:12;;;;;;;2.88;0.77;;;29.50;47.30;;;;;;6254172;23;20015;-81
2022/06/01 16:47:38;;;;;;;3.10;0.80;;;30.10;46.50;;;;;;6228017;23;20197;-79
2022/06/01 16:50:16;;;;;;;2.97;1.00;;;30.60;46.00;;;;;;6254760;23;20029;-82
2022/06/01 16:52:42;;;;;;;1.67;0.63;;;30.80;45.90;;;;;;6228420;23;20198;-81
2022/06/01 16:55:26;;;;;;;3.05;0.98;;;30.30;46.10;;;;;;6256276;23;20008;-79
2022/06/01 16:57:53;;;;;;;4.20;0.70;;;29.80;46.80;;;;;;6230713;23;20023;-79
2022/06/01 17:00:26;;;;;;;3.80;1.23;;;29.90;46.80;;;;;;6256221;23;20056;-80
2022/06/01 17:03:37;;;;;;;3.13;0.80;;;30.60;46.50;;;;;;6234634;23;20058;-78
2022/06/01 17:06:32;;;;;;;3.15;0.82;;;31.90;45.10;;;;;;6203474;23;20309;-78
2022/06/01 17:19:22;;;;;;;2.33;0.80;;;33.10;43.60;;;;;;6263853;23;20004;-78
2022/06/01 17:22:23;;;;;;;2.25;0.70;;;33.20;43.40;;;;;;6238809;23;20222;-77
2022/06/01 17:24:49;;;;;;;1.58;0.52;;;33.10;43.70;;;;;;6233307;23;20075;-78
2022/06/01 17:27:27;;;;;;;2.95;0.90;;;33.50;43.40;;;;;;6229229;23;20004;-80
2022/06/01 17:29:53;;;;;;;2.63;0.60;;;33.10;43.20;;;;;;6228484;23;20004;-80
2022/06/01 17:32:19;;;;;;;2.13;0.80;;;32.90;43.50;;;;;;6225740;23;20187;-79
2022/06/01 17:34:52;;;;;;;1.85;0.63;;;32.20;43.90;;;;;;6227296;23;20003;-80
2022/06/01 17:37:29;;;;;;;3.47;0.77;;;31.90;44.40;;;;;;6199542;23;19996;-80
2022/06/01 17:39:58;;;;;;;2.45;0.60;;;32.10;44.10;;;;;;6201099;23;20192;-79
2022/06/01 17:46:24;;;;;;;1.40;0.63;;;33.10;43.70;;;;;;6225846;23;20067;-79
2022/06/01 17:48:51;;;;;;;3.67;0.88;;;33.40;43.00;;;;;;6226877;23;20054;-79
2022/06/01 17:51:19;;;;;;;2.35;0.70;;;33.20;43.00;;;;;;6227789;23;20390;-84
2022/06/01 17:53:45;;;;;;;2.38;0.60;;;32.30;43.60;;;;;;6151902;23;20039;-83
2022/06/01 17:56:19;;;;;;;4.28;0.60;;;32.30;43.70;;;;;;6200752;23;19997;-84
2022/06/01 17:58:45;;;;;;;1.52;0.68;;;31.90;43.70;;;;;;6200571;23;20183;-83
2022/06/01 18:01:11;;;;;;;2.63;0.60;;;30.70;44.50;;;;;;6200470;23;20009;-85
2022/06/01 18:03:39;;;;;;;3.47;0.70;;;28.90;46.10;;;;;;6200540;23;20051;-82
2022/06/01 18:06:11;;;;;;;3.88;0.80;;;27.60;47.80;;;;;;6199753;23;20004;-81
2022/06/01 18:08:57;;;;;;;2.17;0.70;;;26.50;49.00;;;;;;6199888;23;20007;-84
2022/06/01 18:11:23;;;;;;;1.83;0.90;;;25.70;50.00;;;;;;6199850;23;20008;-82
2022/06/01 18:13:57;;;;;;;2.72;0.60;;;25.90;50.10;;;;;;6175372;23;20369;-83
2022/06/01 18:16:30;;;;;;;4.07;1.00;;;27.00;48.90;;;;;;6172371;23;20087;-84
2022/06/01 18:19:26;;;;;;;3.50;0.98;;;26.60;49.60;;;;;;6172624;23;20155;-83
2022/06/01 18:21:56;;;;;;;1.85;0.70;;;26.50;49.50;;;;;;6197077;23;20009;-81
2022/06/01 18:24:23;;;;;;;4.13;1.00;;;26.70;49.10;;;;;;6225324;23;20064;-82
2022/06/01 18:26:49;;;;;;;2.92;0.90;;;26.30;49.40;;;;;;6225630;23;20270;-82
2022/06/01 18:29:17;;;;;;;2.35;0.70;;;25.90;50.00;;;;;;6252331;23;20151;-78
2022/06/01 18:31:44;;;;;;;2.40;0.80;;;25.20;50.50;;;;;;6251626;23;20020;-81
2022/06/01 18:34:10;;;;;;;1.50;0.70;;;24.60;51.60;;;;;;6225789;23;20004;-80
2022/06/01 18:36:38;;;;;;;7.43;0.80;;;24.10;52.20;;;;;;6225204;23;19988;-82
2022/06/01 18:46:47;;;;;;;3.42;0.98;;;23.00;54.30;;;;;;6250892;23;20003;-84
2022/06/01 18:49:14;;;;;;;3.10;1.13;;;22.70;55.00;;;;;;6251572;23;20012;-84
2022/06/01 18:51:46;;;;;;;4.20;1.10;;;22.50;55.50;;;;;;6199443;23;19992;-82
2022/06/01 18:54:12;;;;;;;3.20;0.95;;;22.30;56.30;;;;;;6225519;23;20012;-83
2022/06/01 18:56:39;;;;;;;3.08;0.80;;;22.20;56.10;;;;;;6224704;23;19996;-83
2022/06/01 19:01:32;;;;;;;2.67;0.98;;;22.20;56.20;;;;;;6225270;23;20004;-83
2022/06/01 19:01:53;;;;;;;3.47;1.33;;;22.00;56.50;;;;;;6224115;23;20016;-82
2022/06/01 19:04:19;;;;;;;3.30;0.80;;;22.00;56.80;;;;;;6225204;23;20092;-82
2022/06/01 19:06:49;;;;;;;2.60;1.10;;;21.80;57.50;;;;;;6224575;23;20286;-79
2022/06/01 19:09:19;;;;;;;4.05;1.13;;;21.70;57.30;;;;;;6199398;23;20001;-82
2022/06/01 19:11:45;;;;;;;2.80;1.30;;;21.60;57.90;;;;;;6251829;23;19996;-83
2022/06/01 19:14:11;;;;;;;3.53;1.60;;;21.40;58.30;;;;;;6200623;23;20076;-82
2022/06/01 19:16:42;;;;;;;2.22;1.25;;;21.30;58.30;;;;;;6250745;23;20510;-83
2022/06/01 19:19:35;;;;;;;2.60;1.10;;;21.20;58.20;;;;;;6225215;23;20028;-82
2022/06/01 19:22:36;;;;;;;3.53;1.17;;;21.10;58.30;;;;;;5968803;23;15062546;-84
2022/06/01 19:25:04;;;;;;;4.90;1.48;;;20.90;58.90;;;;;;6241925;23;20029;-80
2022/06/01 19:27:45;;;;;;;3.90;1.10;;;20.80;58.90;;;;;;6201114;23;20023;-82
2022/06/01 19:30:25;;;;;;;3.08;1.20;;;20.70;59.20;;;;;;6226966;23;20000;-82
2022/06/01 19:33:00;;;;;;;3.78;1.40;;;20.60;59.40;;;;;;6226416;23;20016;-82
2022/06/01 19:35:27;;;;;;;4.30;1.50;;;20.60;59.70;;;;;;6252963;23;20194;-83
2022/06/01 19:44:40;;;;;;;3.17;1.38;;;20.20;60.50;;;;;;6253604;23;20004;-83
2022/06/01 19:47:07;;;;;;;2.95;1.52;;;20.20;60.60;;;;;;6227964;23;20041;-82
2022/06/01 19:49:34;;;;;;;3.78;1.48;;;20.10;60.60;;;;;;6227368;23;20004;-82
2022/06/01 19:52:00;;;;;;;3.97;1.35;;;20.20;60.80;;;;;;6203135;23;20011;-82
2022/06/01 19:54:26;;;;;;;5.13;1.33;;;20.20;61.00;;;;;;6228273;23;20000;-82
2022/06/01 19:56:59;;;;;;;3.03;1.33;;;20.10;60.90;;;;;;6202707;23;20063;-81
2022/06/01 19:59:25;;;;;;;2.22;1.20;;;20.10;61.20;;;;;;6193345;23;20035;-84
2022/06/01 20:01:56;;;;;;;3.28;1.42;;;20.10;61.50;;;;;;6196280;23;20359;-82
2022/06/01 20:04:23;;;;;;;3.55;1.30;;;20.00;61.80;;;;;;6171586;23;20044;-82
2022/06/01 20:13:42;;;;;;;4.70;1.80;;;19.90;62.60;;;;;;6222541;23;20012;-84
2022/06/01 20:16:08;;;;;;;3.45;1.70;;;19.80;63.30;;;;;;6195537;23;20063;-82
2022/06/01 20:18:34;;;;;;;4.70;1.90;;;19.80;63.10;;;;;;6223011;23;20024;-82
2022/06/01 20:21:00;;;;;;;5.93;2.17;;;19.80;63.90;;;;;;6172602;23;20012;-82
2022/06/01 20:23:26;;;;;;;4.13;2.60;;;19.70;64.00;;;;;;6171469;23;20009;-82
2022/06/01 20:25:53;;;;;;;5.63;1.77;;;19.70;64.20;;;;;;6197053;23;20011;-82
2022/06/01 20:28:26;;;;;;;5.30;2.13;;;19.60;63.70;;;;;;6224218;23;20008;-84
2022/06/01 20:30:58;;;;;;;3.95;2.17;;;19.60;64.40;;;;;;6195919;23;20054;-82
2022/06/01 20:33:24;;;;;;;4.68;2.00;;;19.60;64.40;;;;;;6172239;23;20011;-82
2022/06/01 21:12:19;;;;;;;4.32;2.08;;;19.40;65.70;;;;;;6100499;23;20001;-88
2022/06/01 21:14:51;;;;;;;3.75;2.05;;;19.30;65.80;;;;;;6118078;23;20017;-86
2022/06/01 21:17:21;;;;;;;3.25;2.00;;;19.20;66.00;;;;;;6127947;23;20024;-86
2022/06/01 21:19:47;;;;;;;7.22;1.92;;;19.10;66.80;;;;;;6141558;23;20016;-85
2022/06/01 21:22:13;;;;;;;3.42;2.00;;;19.00;67.20;;;;;;6166301;23;20009;-85
2022/06/01 21:24:41;;;;;;;3.75;1.65;;;18.90;67.30;;;;;;6141298;23;20005;-85
2022/06/01 21:27:07;;;;;;;3.08;1.45;;;18.90;66.70;;;;;;6142464;23;20047;-87
2022/06/01 21:29:34;;;;;;;2.75;1.30;;;19.00;66.40;;;;;;6165948;23;20005;-85
2022/06/01 21:32:01;;;;;;;3.47;1.65;;;19.00;66.40;;;;;;6161329;23;20016;-85
2022/06/01 21:34:27;;;;;;;2.58;1.20;;;19.10;66.00;;;;;;6190965;23;20001;-86
2022/06/01 21:36:53;;;;;;;3.42;0.95;;;19.00;66.00;;;;;;6191196;23;20012;-85
2022/06/01 21:39:20;;;;;;;2.45;1.10;;;19.10;65.30;;;;;;6171115;23;20004;-86
2022/06/01 21:41:45;;;;;;;2.92;1.27;;;19.20;65.50;;;;;;6196521;23;20269;-85
2022/06/01 21:44:15;;;;;;;2.78;1.27;;;19.10;65.70;;;;;;6200954;23;20000;-86
2022/06/01 21:46:41;;;;;;;4.68;1.08;;;19.00;65.90;;;;;;6177425;23;20008;-82
2022/06/01 21:49:22;;;;;;;2.65;1.00;;;18.90;66.10;;;;;;6230684;23;19997;-82
2022/06/01 21:51:48;;;;;;;4.30;1.05;;;18.90;66.30;;;;;;6225943;23;20048;-83
2022/06/01 21:58:59;;;;;;;2.25;1.10;;;18.70;66.70;;;;;;6134548;23;20056;-83
2022/06/01 22:01:28;;;;;;;1.80;0.82;;;18.60;66.80;;;;;;6108682;23;20025;-84
2022/06/01 22:03:54;;;;;;;2.85;1.00;;;18.50;67.10;;;;;;6109813;23;20065;-84
2022/06/01 22:06:20;;;;;;;1.67;1.08;;;18.40;67.40;;;;;;6134187;23;20011;-84
2022/06/01 22:08:46;;;;;;;4.05;1.00;;;18.20;67.70;;;;;;6109090;23;20292;-84
2022/06/01 22:13:56;;;;;;;2.83;1.02;;;18.10;67.70;;;;;;6109377;23;20010;-84
2022/06/01 22:16:25;;;;;;;3.17;1.08;;;18.00;67.50;;;;;;6079942;23;20030;-83
2022/06/01 22:18:52;;;;;;;2.50;0.90;;;18.00;67.40;;;;;;6080149;23;20007;-84
2022/06/01 22:21:18;;;;;;;3.88;1.00;;;17.90;67.50;;;;;;6104301;23;20010;-83
2022/06/01 22:23:44;;;;;;;3.53;1.02;;;17.90;67.50;;;;;;6103622;23;20293;-85
2022/06/01 22:26:12;;;;;;;3.78;0.90;;;17.80;67.90;;;;;;6080597;23;20003;-84
2022/06/01 22:28:39;;;;;;;2.33;0.98;;;17.70;68.30;;;;;;6104003;23;20006;-84
2022/06/01 22:31:05;;;;;;;3.67;1.05;;;17.60;68.50;;;;;;6092644;23;20155;-84
2022/06/01 22:33:31;;;;;;;3.10;0.88;;;17.60;68.50;;;;;;6109653;23;20010;-84
2022/06/01 22:38:43;;;;;;;3.80;1.35;;;17.60;68.20;;;;;;6170254;23;20064;-83
2022/06/01 22:44:06;;;;;;;2.25;0.90;;;17.60;67.90;;;;;;6169432;23;20012;-85
2022/06/01 22:46:35;;;;;;;3.15;1.00;;;17.60;67.80;;;;;;6185893;23;20019;-84
2022/06/01 22:49:02;;;;;;;2.03;0.90;;;17.60;67.90;;;;;;6225079;23;20027;-84
2022/06/01 22:51:33;;;;;;;3.53;1.02;;;17.60;67.90;;;;;;6198919;23;20024;-83
2022/06/01 22:53:59;;;;;;;3.22;0.70;;;17.50;68.50;;;;;;6198252;23;20012;-83
2022/06/01 22:56:29;;;;;;;3.78;0.80;;;17.50;68.70;;;;;;6225394;23;20005;-84
2022/06/01 22:58:55;;;;;;;4.45;0.90;;;17.50;68.80;;;;;;6173375;23;20000;-84
